createdAt,value
2024-01-20T00:01:49.440Z,10.25
2024-01-20T00:04:36.617Z,9.77
2024-01-20T00:07:23.483Z,11.15
2024-01-20T00:10:14.145Z,9.25
2024-01-20T00:13:01.424Z,7.75
2024-01-20T00:15:48.781Z,9.52
2024-01-20T00:18:35.736Z,9.60
2024-01-20T00:21:22.854Z,9.35
2024-01-20T00:24:09.806Z,7.22
2024-01-20T00:26:56.684Z,8.00
2024-01-20T00:29:43.787Z,7.32
2024-01-20T00:32:31.711Z,6.47
2024-01-20T00:38:05.621Z,8.00
2024-01-20T00:40:52.832Z,7.05
2024-01-20T00:43:39.805Z,8.02
2024-01-20T00:46:26.592Z,9.50
2024-01-20T00:49:13.546Z,9.45
2024-01-20T00:52:00.466Z,10.45
2024-01-20T00:54:47.553Z,9.82
2024-01-20T00:57:34.644Z,9.15
2024-01-20T01:00:21.545Z,8.38
2024-01-20T01:03:09.656Z,8.05
2024-01-20T01:05:56.640Z,8.52
2024-01-20T01:08:43.929Z,12.98
2024-01-20T01:11:31.225Z,15.55
2024-01-20T01:14:18.084Z,12.82
2024-01-20T01:17:05.142Z,12.30
2024-01-20T01:19:52.017Z,13.45
2024-01-20T01:22:39.063Z,12.10
2024-01-20T01:25:25.946Z,11.05
2024-01-20T01:28:12.794Z,12.50
2024-01-20T01:30:59.781Z,11.60
2024-01-20T01:33:46.640Z,13.40
2024-01-20T01:36:33.446Z,11.02
2024-01-20T01:39:21.568Z,14.98
2024-01-20T01:42:08.400Z,10.13
2024-01-20T01:44:55.764Z,12.00
2024-01-20T01:47:42.751Z,11.30
2024-01-20T01:50:30.264Z,11.30
2024-01-20T01:56:06.203Z,10.65
2024-01-20T01:58:53.202Z,10.45
2024-01-20T02:01:40.107Z,7.53
2024-01-20T02:04:27.117Z,9.07
2024-01-20T02:07:16.559Z,6.97
2024-01-20T02:10:03.810Z,7.70
2024-01-20T02:12:51.177Z,7.88
2024-01-20T02:18:25.697Z,7.32
2024-01-20T02:21:12.751Z,7.03
2024-01-20T02:24:00.827Z,7.07
2024-01-20T02:26:47.852Z,5.55
2024-01-20T02:29:38.013Z,8.68
2024-01-20T02:32:24.919Z,6.68
2024-01-20T02:35:12.159Z,6.13
2024-01-20T02:38:01.206Z,6.18
2024-01-20T02:40:48.174Z,6.72
2024-01-20T02:43:35.070Z,5.97
2024-01-20T02:46:21.904Z,7.82
2024-01-20T02:49:08.960Z,7.43
2024-01-20T02:51:56.020Z,8.18
2024-01-20T02:54:42.851Z,6.50
2024-01-20T02:57:30.758Z,8.23
2024-01-20T03:00:17.726Z,8.35
2024-01-20T03:03:05.189Z,7.63
2024-01-20T03:08:39.056Z,9.57
2024-01-20T03:11:26.276Z,8.52
2024-01-20T03:14:13.492Z,8.20
2024-01-20T03:17:00.379Z,5.10
2024-01-20T03:19:47.374Z,6.03
2024-01-20T03:22:34.372Z,6.75
2024-01-20T03:25:21.255Z,8.52
2024-01-20T03:28:08.133Z,6.47
2024-01-20T03:30:54.977Z,5.15
2024-01-20T03:33:41.882Z,5.82
2024-01-20T03:36:28.963Z,6.05
2024-01-20T03:39:15.883Z,6.10
2024-01-20T03:42:02.771Z,6.40
2024-01-20T03:44:49.628Z,5.97
2024-01-20T03:47:36.524Z,6.15
2024-01-20T03:50:23.584Z,5.85
2024-01-20T03:53:10.464Z,6.68
2024-01-20T03:55:57.312Z,6.95
2024-01-20T03:58:44.209Z,8.70
2024-01-20T04:01:31.099Z,8.32
2024-01-20T04:04:18.047Z,6.13
2024-01-20T04:07:07.049Z,6.85
2024-01-20T04:09:53.961Z,5.50
2024-01-20T04:12:41.597Z,6.88
2024-01-20T04:15:29.044Z,7.43
2024-01-20T04:18:16.165Z,7.82
2024-01-20T04:21:03.486Z,7.47
2024-01-20T04:23:51.201Z,6.30
2024-01-20T04:26:38.071Z,5.88
2024-01-20T04:29:24.897Z,7.60
2024-01-20T04:32:11.738Z,6.13
2024-01-20T04:34:58.850Z,7.93
2024-01-20T04:37:45.686Z,6.43
2024-01-20T04:40:32.485Z,8.32
2024-01-20T04:43:19.347Z,8.30
2024-01-20T04:46:06.228Z,7.63
2024-01-20T04:48:53.129Z,7.63
2024-01-20T04:51:40.189Z,6.63
2024-01-20T04:54:27.746Z,7.50
2024-01-20T04:57:15.022Z,6.70
2024-01-20T05:00:03.417Z,6.15
2024-01-20T05:02:50.338Z,6.57
2024-01-20T05:05:37.250Z,8.27
2024-01-20T05:08:24.082Z,5.72
2024-01-20T05:11:11.004Z,7.57
2024-01-20T05:13:57.949Z,5.43
2024-01-20T05:16:44.817Z,6.13
2024-01-20T05:19:31.766Z,7.00
2024-01-20T05:22:19.369Z,6.88
2024-01-20T05:25:07.407Z,6.35
2024-01-20T05:27:55.105Z,8.20
2024-01-20T05:30:42.030Z,7.03
2024-01-20T05:33:29.071Z,9.75
2024-01-20T05:36:15.924Z,7.93
2024-01-20T05:39:02.971Z,7.00
2024-01-20T05:41:49.869Z,7.70
2024-01-20T05:44:36.761Z,5.75
2024-01-20T05:47:23.623Z,7.15
2024-01-20T05:50:10.749Z,6.88
2024-01-20T05:52:57.866Z,7.47
2024-01-20T05:55:44.671Z,6.57
2024-01-20T05:58:31.464Z,8.70
2024-01-20T06:01:19.122Z,7.70
2024-01-20T06:04:06.309Z,8.35
2024-01-20T06:06:54.041Z,6.47
2024-01-20T06:09:40.849Z,9.38
2024-01-20T06:12:27.812Z,7.35
2024-01-20T06:15:14.807Z,8.35
2024-01-20T06:18:01.822Z,8.52
2024-01-20T06:20:48.843Z,7.55
2024-01-20T06:23:36.095Z,8.38
2024-01-20T06:29:09.774Z,8.07
2024-01-20T06:31:56.618Z,10.95
2024-01-20T06:34:43.587Z,8.13
2024-01-20T06:37:30.966Z,7.50
2024-01-20T06:40:18.010Z,8.70
2024-01-20T06:43:05.183Z,7.45
2024-01-20T06:45:52.267Z,7.20
2024-01-20T06:48:39.340Z,7.88
2024-01-20T06:51:28.456Z,7.38
2024-01-20T06:54:15.404Z,9.05
2024-01-20T06:57:02.286Z,8.15
2024-01-20T06:59:49.405Z,8.40
2024-01-20T07:02:36.630Z,9.13
2024-01-20T07:05:23.597Z,7.50
2024-01-20T07:08:10.981Z,8.10
2024-01-20T07:13:44.571Z,10.10
2024-01-20T07:16:31.416Z,9.95
2024-01-20T07:19:18.466Z,12.38
2024-01-20T07:22:05.422Z,11.60
2024-01-20T07:24:52.280Z,11.73
2024-01-20T07:27:39.284Z,12.77
2024-01-20T07:30:26.184Z,14.95
2024-01-20T07:33:13.397Z,13.20
2024-01-20T07:36:00.640Z,12.27
2024-01-20T07:38:47.547Z,11.35
2024-01-20T07:41:34.475Z,10.70
2024-01-20T07:44:21.335Z,8.80
2024-01-20T07:47:08.186Z,6.90
2024-01-20T07:49:55.222Z,10.40
2024-01-20T07:52:42.081Z,13.82
2024-01-20T07:55:29.472Z,18.17
2024-01-20T07:58:16.808Z,18.50
2024-01-20T08:03:50.713Z,23.75
2024-01-20T08:06:38.019Z,25.88
2024-01-20T08:09:25.054Z,33.75
2024-01-20T08:12:11.922Z,27.13
2024-01-20T08:14:58.913Z,19.92
2024-01-20T08:17:45.805Z,18.08
2024-01-20T08:20:32.814Z,17.98
2024-01-20T08:23:19.625Z,20.30
2024-01-20T08:26:06.564Z,17.90
2024-01-20T08:28:53.475Z,16.83
2024-01-20T08:31:40.312Z,20.35
2024-01-20T08:34:27.690Z,22.17
2024-01-20T08:40:01.731Z,16.63
2024-01-20T08:42:48.608Z,15.48
2024-01-20T08:45:35.459Z,18.50
2024-01-20T08:48:22.344Z,24.75
2024-01-20T08:51:09.324Z,22.20
2024-01-20T08:53:56.270Z,17.63
2024-01-20T08:56:43.446Z,11.68
2024-01-20T08:59:30.279Z,11.88
2024-01-20T09:02:17.169Z,11.70
2024-01-20T09:05:04.312Z,13.07
2024-01-20T09:07:51.124Z,14.05
2024-01-20T09:10:39.150Z,12.07
2024-01-20T09:13:26.044Z,10.77
2024-01-20T09:16:12.920Z,10.50
2024-01-20T09:18:59.885Z,11.55
2024-01-20T09:21:47.638Z,13.60
2024-01-20T09:24:34.472Z,19.33
2024-01-20T09:27:21.495Z,23.70
2024-01-20T09:30:09.007Z,17.80
2024-01-20T09:35:43.445Z,14.68
2024-01-20T09:38:31.102Z,13.38
2024-01-20T09:44:05.478Z,8.65
2024-01-20T09:46:53.243Z,13.30
2024-01-20T09:49:40.305Z,9.00
2024-01-20T09:52:28.991Z,9.02
2024-01-20T09:55:22.909Z,6.63
2024-01-20T09:58:13.636Z,8.70
2024-01-20T10:01:01.814Z,5.70
2024-01-20T10:03:49.420Z,4.75
2024-01-20T10:06:36.548Z,4.45
2024-01-20T10:09:24.248Z,5.30
2024-01-20T10:14:58.063Z,4.65
2024-01-20T10:17:44.886Z,4.82
2024-01-20T10:20:37.315Z,3.97
2024-01-20T10:23:24.451Z,3.30
2024-01-20T10:26:11.380Z,4.67
2024-01-20T10:28:58.461Z,5.03
2024-01-20T10:31:45.273Z,3.97
2024-01-20T10:34:32.533Z,4.80
2024-01-20T10:37:24.210Z,4.22
2024-01-20T10:40:15.158Z,3.67
2024-01-20T10:43:08.398Z,4.43
2024-01-20T10:46:26.876Z,4.10
2024-01-20T10:49:18.867Z,4.47
2024-01-20T10:52:06.182Z,2.75
2024-01-20T10:54:53.114Z,2.58
2024-01-20T10:57:40.130Z,2.75
2024-01-20T11:00:26.974Z,2.42
2024-01-20T11:03:14.632Z,2.22
2024-01-20T11:06:01.625Z,2.42
2024-01-20T11:08:52.738Z,2.60
2024-01-20T11:11:40.557Z,2.63
2024-01-20T11:14:32.400Z,2.22
2024-01-20T11:17:19.888Z,2.97
2024-01-20T11:20:14.037Z,1.90
2024-01-20T11:23:09.178Z,3.03
2024-01-20T11:25:57.560Z,3.47
2024-01-20T11:28:44.522Z,3.10
2024-01-20T11:31:32.183Z,4.28
2024-01-20T11:34:19.391Z,4.20
2024-01-20T11:37:08.710Z,4.07
2024-01-20T11:40:09.032Z,4.03
2024-01-20T11:43:06.246Z,3.65
2024-01-20T11:45:53.709Z,3.97
2024-01-20T11:51:28.063Z,2.88
2024-01-20T11:54:15.249Z,3.25
2024-01-20T11:57:02.143Z,3.30
2024-01-20T11:59:49.889Z,2.67
2024-01-20T12:02:36.713Z,3.50
2024-01-20T12:05:24.176Z,2.42
2024-01-20T12:08:11.714Z,4.28
2024-01-20T12:10:58.775Z,3.40
2024-01-20T12:16:33.227Z,4.78
2024-01-20T12:22:13.185Z,17.90
2024-01-20T12:25:00.561Z,8.98
2024-01-20T12:27:51.268Z,4.53
2024-01-20T12:30:38.252Z,3.47
2024-01-20T12:33:25.247Z,2.05
2024-01-20T12:36:12.136Z,1.80
2024-01-20T12:41:45.844Z,4.20
2024-01-20T12:44:32.872Z,2.17
2024-01-20T12:47:19.748Z,1.40
2024-01-20T12:50:07.704Z,1.83
2024-01-20T12:52:54.836Z,1.50
2024-01-20T12:55:42.653Z,1.40
2024-01-20T12:58:31.420Z,1.90
2024-01-20T13:01:19.705Z,2.05
2024-01-20T13:04:06.564Z,2.08
2024-01-20T13:06:53.494Z,1.60
2024-01-20T13:09:40.854Z,1.50
2024-01-20T13:12:27.884Z,3.17
2024-01-20T13:15:15.036Z,1.20
2024-01-20T13:18:02.232Z,1.88
2024-01-20T13:20:49.445Z,1.70
2024-01-20T13:23:36.318Z,2.05
2024-01-20T13:26:23.632Z,1.35
2024-01-20T13:29:12.435Z,1.30
2024-01-20T13:31:59.456Z,1.02
2024-01-20T13:34:46.447Z,0.82
2024-01-20T13:37:33.321Z,1.23
2024-01-20T13:40:20.417Z,1.48
2024-01-20T13:43:07.313Z,2.00
2024-01-20T13:45:54.183Z,1.35
2024-01-20T13:48:41.131Z,1.58
2024-01-20T13:51:32.975Z,1.65
2024-01-20T13:54:20.121Z,1.55
2024-01-20T13:57:07.184Z,1.48
2024-01-20T13:59:54.106Z,1.90
2024-01-20T14:02:48.511Z,2.40
2024-01-20T14:05:35.770Z,2.88
2024-01-20T14:08:24.647Z,4.32
2024-01-20T14:11:11.594Z,6.28
2024-01-20T14:13:58.449Z,5.70
2024-01-20T14:16:58.344Z,4.03
2024-01-20T14:19:45.361Z,2.70
2024-01-20T14:22:32.184Z,3.42
2024-01-20T14:25:19.106Z,2.07
2024-01-20T14:28:06.408Z,3.90
2024-01-20T14:30:53.574Z,3.20
2024-01-20T14:33:40.511Z,2.80
2024-01-20T14:36:27.482Z,3.33
2024-01-20T14:39:15.242Z,3.78
2024-01-20T14:44:49.683Z,3.53
2024-01-20T14:47:36.803Z,3.47
2024-01-20T14:50:23.718Z,2.38
2024-01-20T14:53:10.740Z,3.13
2024-01-20T14:55:57.550Z,2.65
2024-01-20T14:58:47.042Z,1.97
2024-01-20T15:01:35.318Z,4.53
2024-01-20T15:04:22.490Z,3.08
2024-01-20T15:07:09.918Z,3.08
2024-01-20T15:09:56.766Z,3.30
2024-01-20T15:12:43.714Z,2.20
2024-01-20T15:15:30.700Z,1.80
2024-01-20T15:18:17.971Z,2.80
2024-01-20T15:21:05.331Z,2.17
2024-01-20T15:23:52.771Z,2.50
2024-01-20T15:26:40.282Z,2.70
2024-01-20T15:29:27.378Z,2.20
2024-01-20T15:32:15.241Z,2.88
2024-01-20T15:35:06.322Z,3.47
2024-01-20T15:37:55.479Z,3.42
2024-01-20T15:40:42.609Z,2.88
2024-01-20T15:43:29.685Z,3.42
2024-01-20T15:46:18.613Z,2.78
2024-01-20T15:49:05.580Z,4.55
2024-01-20T15:51:52.612Z,4.13
2024-01-20T15:54:39.560Z,3.60
2024-01-20T15:57:26.874Z,4.03
2024-01-20T16:00:14.265Z,4.63
2024-01-20T16:03:01.763Z,5.28
2024-01-20T16:05:48.765Z,6.22
2024-01-20T16:08:35.675Z,5.30
2024-01-20T16:11:22.533Z,8.27
2024-01-20T16:14:09.585Z,7.47
2024-01-20T16:16:56.458Z,9.80
2024-01-20T16:19:43.371Z,9.37
2024-01-20T16:22:31.694Z,8.52
2024-01-20T16:25:20.992Z,9.90
2024-01-20T16:28:08.305Z,11.10
2024-01-20T16:30:57.191Z,25.23
2024-01-20T16:33:46.062Z,38.00
2024-01-20T16:36:33.371Z,40.33
2024-01-20T16:39:21.226Z,37.65
2024-01-20T16:42:08.220Z,35.17
2024-01-20T16:44:55.918Z,26.63
2024-01-20T16:50:29.912Z,11.52
2024-01-20T16:53:16.910Z,8.60
2024-01-20T16:56:03.882Z,8.95
2024-01-20T16:58:50.868Z,15.00
2024-01-20T17:01:38.446Z,9.88
2024-01-20T17:04:54.308Z,44.35
2024-01-20T17:07:42.687Z,49.10
2024-01-20T17:10:30.882Z,16.52
2024-01-20T17:16:04.754Z,6.38
2024-01-20T17:18:51.969Z,3.63
2024-01-20T17:21:38.972Z,7.25
2024-01-20T17:24:27.795Z,7.20
2024-01-20T17:27:14.755Z,7.10
2024-01-20T17:30:01.704Z,6.65
2024-01-20T17:32:48.988Z,5.30
2024-01-20T17:35:35.852Z,8.07
2024-01-20T17:38:22.894Z,10.02
2024-01-20T17:41:09.768Z,8.70
2024-01-20T17:43:56.613Z,7.93
2024-01-20T17:46:43.490Z,6.22
2024-01-20T17:49:30.635Z,5.32
2024-01-20T17:52:17.712Z,4.57
2024-01-20T17:55:04.908Z,3.95
2024-01-20T17:57:52.331Z,2.80
2024-01-20T18:00:39.863Z,4.82
2024-01-20T18:03:26.805Z,7.40
2024-01-20T18:06:14.704Z,4.53
2024-01-20T18:09:01.827Z,3.67
2024-01-20T18:11:49.844Z,4.20
2024-01-20T18:14:36.798Z,3.25
2024-01-20T18:17:24.009Z,2.70
2024-01-20T18:20:11.349Z,3.35
2024-01-20T18:22:58.297Z,3.13
2024-01-20T18:25:45.201Z,14.55
2024-01-20T18:28:32.359Z,18.27
2024-01-20T18:31:19.213Z,15.05
2024-01-20T18:34:06.229Z,11.23
2024-01-20T18:36:53.102Z,12.55
2024-01-20T18:39:40.067Z,9.60
2024-01-20T18:42:28.362Z,15.95
2024-01-20T18:45:15.301Z,14.48
2024-01-20T18:48:04.345Z,12.63
2024-01-20T18:50:51.289Z,8.07
2024-01-20T18:53:39.211Z,8.20
2024-01-20T18:56:29.983Z,9.82
2024-01-20T18:59:16.896Z,6.45
2024-01-20T19:02:04.238Z,4.68
2024-01-20T19:04:51.604Z,4.03
2024-01-20T19:07:38.587Z,3.15
2024-01-20T19:10:25.870Z,5.28
2024-01-20T19:13:12.766Z,6.78
2024-01-20T19:15:59.920Z,6.97
2024-01-20T19:18:47.065Z,5.10
2024-01-20T19:21:34.127Z,5.57
2024-01-20T19:24:21.752Z,3.80
2024-01-20T19:29:58.270Z,2.53
2024-01-20T19:32:45.177Z,3.05
2024-01-20T19:35:32.018Z,2.20
2024-01-20T19:38:22.033Z,2.30
2024-01-20T19:41:08.956Z,3.45
2024-01-20T19:43:55.954Z,5.38
2024-01-20T19:46:43.324Z,3.83
2024-01-20T19:52:19.201Z,3.30
2024-01-20T19:55:06.653Z,2.75
2024-01-20T19:57:53.638Z,2.03
2024-01-20T20:00:40.555Z,2.17
2024-01-20T20:03:27.592Z,2.22
2024-01-20T20:06:14.631Z,3.40
2024-01-20T20:09:01.665Z,2.38
2024-01-20T20:11:48.679Z,5.85
2024-01-20T20:14:35.771Z,2.63
2024-01-20T20:17:24.144Z,4.88
2024-01-20T20:20:11.456Z,6.75
2024-01-20T20:22:58.818Z,10.60
2024-01-20T20:25:45.731Z,12.82
2024-01-20T20:28:34.705Z,10.45
2024-01-20T20:31:23.468Z,9.80
2024-01-20T20:34:10.580Z,8.90
2024-01-20T20:36:57.959Z,9.75
2024-01-20T20:39:45.157Z,20.58
2024-01-20T20:42:32.301Z,30.98
2024-01-20T20:45:19.320Z,17.40
2024-01-20T20:48:06.700Z,9.15
2024-01-20T20:50:53.646Z,6.47
2024-01-20T20:53:40.510Z,5.68
2024-01-20T20:56:27.377Z,5.15
2024-01-20T20:59:14.323Z,4.88
2024-01-20T21:02:03.216Z,9.10
2024-01-20T21:04:50.557Z,14.05
2024-01-20T21:07:37.460Z,16.13
2024-01-20T21:10:24.379Z,9.75
2024-01-20T21:13:11.483Z,9.27
2024-01-20T21:15:58.443Z,5.93
2024-01-20T21:18:45.561Z,3.75
2024-01-20T21:21:32.553Z,3.13
2024-01-20T21:24:22.283Z,2.63
2024-01-20T21:27:09.560Z,2.08
2024-01-20T21:29:56.642Z,2.90
2024-01-20T21:32:44.146Z,2.83
2024-01-20T21:35:34.178Z,4.32
2024-01-20T21:38:23.676Z,3.25
2024-01-20T21:41:10.880Z,3.13
2024-01-20T21:44:01.861Z,3.40
2024-01-20T21:46:48.980Z,1.92
2024-01-20T21:49:37.354Z,2.78
2024-01-20T21:52:26.415Z,1.80
2024-01-20T21:55:13.319Z,3.15
2024-01-20T21:58:01.687Z,2.65
2024-01-20T22:00:48.910Z,2.72
2024-01-20T22:03:36.064Z,2.72
2024-01-20T22:06:23.086Z,3.00
2024-01-20T22:09:13.774Z,2.97
2024-01-20T22:12:01.071Z,2.42
2024-01-20T22:14:48.064Z,10.15
2024-01-20T22:17:34.966Z,10.20
2024-01-20T22:20:22.409Z,4.65
2024-01-20T22:23:09.439Z,2.85
2024-01-20T22:25:56.530Z,2.55
2024-01-20T22:28:44.261Z,8.75
2024-01-20T22:31:31.937Z,4.93
2024-01-20T22:34:18.999Z,4.88
2024-01-20T22:37:06.101Z,3.25
2024-01-20T22:39:53.012Z,2.70
2024-01-20T22:42:39.958Z,1.75
2024-01-20T22:45:26.984Z,2.60
2024-01-20T22:48:14.071Z,3.63
2024-01-20T22:51:01.081Z,2.28
2024-01-20T22:53:47.951Z,3.53
2024-01-20T22:56:55.525Z,3.67
2024-01-20T22:59:45.952Z,3.08
2024-01-20T23:02:35.804Z,3.88
2024-01-20T23:05:27.270Z,3.92
2024-01-20T23:08:14.892Z,5.43
2024-01-20T23:13:51.374Z,5.95
2024-01-20T23:16:38.239Z,4.20
2024-01-20T23:19:25.289Z,11.75
2024-01-20T23:22:12.165Z,7.90
2024-01-20T23:24:59.037Z,5.82
2024-01-20T23:27:48.758Z,3.42
2024-01-20T23:30:36.928Z,3.85
2024-01-20T23:33:24.783Z,3.17
2024-01-20T23:36:13.232Z,5.78
2024-01-20T23:39:00.292Z,4.57
2024-01-20T23:41:47.288Z,6.22
2024-01-20T23:44:35.162Z,5.00
2024-01-20T23:47:23.242Z,4.95
2024-01-20T23:50:10.631Z,5.47
2024-01-20T23:52:57.428Z,6.70
2024-01-20T23:55:44.422Z,7.07
2024-01-20T23:58:31.619Z,5.93
